sensor_id;sensor_type;location;lat;lon;timestamp;temperature;humidity
69938;DHT22;57248;47.320;15.998;2022-09-30T00:00:21;10.41;96.67
69938;DHT22;57248;47.320;15.998;2022-09-30T00:02:47;10.41;97.11
69938;DHT22;57248;47.320;15.998;2022-09-30T00:05:14;10.33;96.95
69938;DHT22;57248;47.320;15.998;2022-09-30T00:07:39;10.41;96.65
69938;DHT22;57248;47.320;15.998;2022-09-30T00:10:05;10.35;96.72
69938;DHT22;57248;47.320;15.998;2022-09-30T00:12:31;10.31;96.40
69938;DHT22;57248;47.320;15.998;2022-09-30T00:14:57;10.29;96.82
69938;DHT22;57248;47.320;15.998;2022-09-30T00:17:22;10.29;96.89
69938;DHT22;57248;47.320;15.998;2022-09-30T00:19:48;10.31;96.85
69938;DHT22;57248;47.320;15.998;2022-09-30T00:22:13;10.36;96.71
69938;DHT22;57248;47.320;15.998;2022-09-30T00:24:39;10.41;96.80
69938;DHT22;57248;47.320;15.998;2022-09-30T00:27:04;10.39;96.41
69938;DHT22;57248;47.320;15.998;2022-09-30T00:29:30;10.38;96.50
69938;DHT22;57248;47.320;15.998;2022-09-30T00:31:55;10.41;96.60
69938;DHT22;57248;47.320;15.998;2022-09-30T00:34:21;10.39;96.69
69938;DHT22;57248;47.320;15.998;2022-09-30T00:36:55;10.41;96.82
69938;DHT22;57248;47.320;15.998;2022-09-30T00:39:23;10.29;96.79
69938;DHT22;57248;47.320;15.998;2022-09-30T00:41:52;10.35;96.71
69938;DHT22;57248;47.320;15.998;2022-09-30T00:44:53;10.29;97.04
69938;DHT22;57248;47.320;15.998;2022-09-30T00:53:22;10.36;96.75
69938;DHT22;57248;47.320;15.998;2022-09-30T00:55:56;10.38;96.70
69938;DHT22;57248;47.320;15.998;2022-09-30T01:01:02;10.31;96.35
69938;DHT22;57248;47.320;15.998;2022-09-30T01:03:55;10.29;96.75
69938;DHT22;57248;47.320;15.998;2022-09-30T01:06:22;10.35;96.21
69938;DHT22;57248;47.320;15.998;2022-09-30T01:08:48;10.35;96.55
69938;DHT22;57248;47.320;15.998;2022-09-30T01:11:14;10.38;96.31
69938;DHT22;57248;47.320;15.998;2022-09-30T01:13:41;10.36;96.33
69938;DHT22;57248;47.320;15.998;2022-09-30T01:16:37;10.35;96.44
69938;DHT22;57248;47.320;15.998;2022-09-30T01:22:15;10.36;96.75
69938;DHT22;57248;47.320;15.998;2022-09-30T01:38:27;10.38;96.21
69938;DHT22;57248;47.320;15.998;2022-09-30T01:43:29;10.41;96.26
69938;DHT22;57248;47.320;15.998;2022-09-30T01:46:19;10.43;96.35
69938;DHT22;57248;47.320;15.998;2022-09-30T01:49:29;10.41;96.42
69938;DHT22;57248;47.320;15.998;2022-09-30T01:51:38;10.38;96.15
69938;DHT22;57248;47.320;15.998;2022-09-30T01:54:38;10.31;97.01
69938;DHT22;57248;47.320;15.998;2022-09-30T01:57:38;10.33;96.81
69938;DHT22;57248;47.320;15.998;2022-09-30T02:00:10;10.38;96.66
69938;DHT22;57248;47.320;15.998;2022-09-30T02:02:56;10.32;96.29
69938;DHT22;57248;47.320;15.998;2022-09-30T02:05:47;10.31;96.38
69938;DHT22;57248;47.320;15.998;2022-09-30T02:08:23;10.26;95.84
69938;DHT22;57248;47.320;15.998;2022-09-30T02:11:04;10.26;95.98
69938;DHT22;57248;47.320;15.998;2022-09-30T02:16:31;10.18;96.00
69938;DHT22;57248;47.320;15.998;2022-09-30T02:19:10;10.22;95.86
69938;DHT22;57248;47.320;15.998;2022-09-30T02:21:40;10.18;95.96
69938;DHT22;57248;47.320;15.998;2022-09-30T02:24:11;10.23;96.32
69938;DHT22;57248;47.320;15.998;2022-09-30T02:26:40;10.28;96.25
69938;DHT22;57248;47.320;15.998;2022-09-30T02:29:12;10.29;95.70
69938;DHT22;57248;47.320;15.998;2022-09-30T02:31:40;10.25;95.68
69938;DHT22;57248;47.320;15.998;2022-09-30T02:34:20;10.21;95.73
69938;DHT22;57248;47.320;15.998;2022-09-30T02:36:53;10.28;96.17
69938;DHT22;57248;47.320;15.998;2022-09-30T02:39:22;10.25;95.86
69938;DHT22;57248;47.320;15.998;2022-09-30T02:41:54;10.26;96.41
69938;DHT22;57248;47.320;15.998;2022-09-30T02:44:23;10.26;96.08
69938;DHT22;57248;47.320;15.998;2022-09-30T02:46:59;10.22;96.35
69938;DHT22;57248;47.320;15.998;2022-09-30T02:49:31;10.26;96.18
69938;DHT22;57248;47.320;15.998;2022-09-30T02:52:34;10.28;95.99
69938;DHT22;57248;47.320;15.998;2022-09-30T03:00:17;10.31;96.14
69938;DHT22;57248;47.320;15.998;2022-09-30T03:02:42;10.31;95.79
69938;DHT22;57248;47.320;15.998;2022-09-30T03:05:09;10.31;96.21
69938;DHT22;57248;47.320;15.998;2022-09-30T03:07:35;10.32;96.03
69938;DHT22;57248;47.320;15.998;2022-09-30T03:10:11;10.33;96.10
69938;DHT22;57248;47.320;15.998;2022-09-30T03:21:33;10.32;96.55
69938;DHT22;57248;47.320;15.998;2022-09-30T03:34:42;10.35;97.25
69938;DHT22;57248;47.320;15.998;2022-09-30T03:40:06;10.21;97.65
69938;DHT22;57248;47.320;15.998;2022-09-30T03:42:44;10.21;97.62
69938;DHT22;57248;47.320;15.998;2022-09-30T03:47:52;10.33;96.62
69938;DHT22;57248;47.320;15.998;2022-09-30T03:50:21;10.26;97.43
69938;DHT22;57248;47.320;15.998;2022-09-30T03:52:48;10.25;97.65
69938;DHT22;57248;47.320;15.998;2022-09-30T03:55:14;10.22;97.68
69938;DHT22;57248;47.320;15.998;2022-09-30T03:57:41;10.28;97.68
69938;DHT22;57248;47.320;15.998;2022-09-30T04:00:10;10.28;97.66
69938;DHT22;57248;47.320;15.998;2022-09-30T04:02:36;10.38;97.45
69938;DHT22;57248;47.320;15.998;2022-09-30T04:05:03;10.35;97.07
69938;DHT22;57248;47.320;15.998;2022-09-30T04:07:29;10.32;96.94
69938;DHT22;57248;47.320;15.998;2022-09-30T04:09:55;10.33;97.26
69938;DHT22;57248;47.320;15.998;2022-09-30T04:12:20;10.41;96.95
69938;DHT22;57248;47.320;15.998;2022-09-30T04:14:46;10.39;97.00
69938;DHT22;57248;47.320;15.998;2022-09-30T04:17:11;10.38;97.42
69938;DHT22;57248;47.320;15.998;2022-09-30T04:19:37;10.36;97.28
69938;DHT22;57248;47.320;15.998;2022-09-30T04:22:07;10.49;96.96
69938;DHT22;57248;47.320;15.998;2022-09-30T04:24:33;10.42;96.96
69938;DHT22;57248;47.320;15.998;2022-09-30T04:26:58;10.42;96.84
69938;DHT22;57248;47.320;15.998;2022-09-30T04:29:24;10.41;97.01
69938;DHT22;57248;47.320;15.998;2022-09-30T04:31:50;10.36;97.19
69938;DHT22;57248;47.320;15.998;2022-09-30T04:34:15;10.42;96.47
69938;DHT22;57248;47.320;15.998;2022-09-30T04:36:41;10.43;96.91
69938;DHT22;57248;47.320;15.998;2022-09-30T04:39:06;10.46;96.89
69938;DHT22;57248;47.320;15.998;2022-09-30T04:41:32;10.45;96.81
69938;DHT22;57248;47.320;15.998;2022-09-30T04:43:59;10.46;97.06
69938;DHT22;57248;47.320;15.998;2022-09-30T04:46:30;10.41;97.14
69938;DHT22;57248;47.320;15.998;2022-09-30T04:48:56;10.43;97.55
69938;DHT22;57248;47.320;15.998;2022-09-30T04:51:22;10.49;97.40
69938;DHT22;57248;47.320;15.998;2022-09-30T04:53:48;10.52;97.20
69938;DHT22;57248;47.320;15.998;2022-09-30T04:56:14;10.50;97.22
69938;DHT22;57248;47.320;15.998;2022-09-30T04:58:43;10.55;97.30
69938;DHT22;57248;47.320;15.998;2022-09-30T05:01:11;10.52;97.21
69938;DHT22;57248;47.320;15.998;2022-09-30T05:03:37;10.52;96.98
69938;DHT22;57248;47.320;15.998;2022-09-30T05:06:04;10.52;96.68
69938;DHT22;57248;47.320;15.998;2022-09-30T05:08:30;10.55;96.93
69938;DHT22;57248;47.320;15.998;2022-09-30T05:11:05;10.53;96.72
69938;DHT22;57248;47.320;15.998;2022-09-30T05:13:38;11.82;99.99
69938;DHT22;57248;47.320;15.998;2022-09-30T05:16:04;12.72;99.85
69938;DHT22;57248;47.320;15.998;2022-09-30T05:18:31;12.95;97.94
69938;DHT22;57248;47.320;15.998;2022-09-30T05:20:58;12.42;93.52
69938;DHT22;57248;47.320;15.998;2022-09-30T05:23:26;11.75;95.18
69938;DHT22;57248;47.320;15.998;2022-09-30T05:25:53;11.38;95.78
69938;DHT22;57248;47.320;15.998;2022-09-30T05:28:18;11.22;95.92
69938;DHT22;57248;47.320;15.998;2022-09-30T05:30:44;11.11;95.64
69938;DHT22;57248;47.320;15.998;2022-09-30T05:33:13;10.99;96.48
69938;DHT22;57248;47.320;15.998;2022-09-30T05:35:39;10.87;96.93
69938;DHT22;57248;47.320;15.998;2022-09-30T05:38:06;10.85;97.12
69938;DHT22;57248;47.320;15.998;2022-09-30T05:40:32;10.87;97.07
69938;DHT22;57248;47.320;15.998;2022-09-30T05:42:58;10.87;96.75
69938;DHT22;57248;47.320;15.998;2022-09-30T05:45:25;10.87;96.84
69938;DHT22;57248;47.320;15.998;2022-09-30T05:47:54;10.80;97.06
69938;DHT22;57248;47.320;15.998;2022-09-30T05:50:21;10.80;97.42
69938;DHT22;57248;47.320;15.998;2022-09-30T05:52:48;10.79;97.44
69938;DHT22;57248;47.320;15.998;2022-09-30T05:55:15;10.80;97.21
69938;DHT22;57248;47.320;15.998;2022-09-30T05:57:41;10.67;97.66
69938;DHT22;57248;47.320;15.998;2022-09-30T06:00:08;10.69;97.90
69938;DHT22;57248;47.320;15.998;2022-09-30T06:02:38;10.70;97.74
69938;DHT22;57248;47.320;15.998;2022-09-30T06:05:09;10.80;97.10
69938;DHT22;57248;47.320;15.998;2022-09-30T06:07:36;10.80;97.15
69938;DHT22;57248;47.320;15.998;2022-09-30T06:10:04;10.94;96.66
69938;DHT22;57248;47.320;15.998;2022-09-30T06:12:33;11.03;96.33
69938;DHT22;57248;47.320;15.998;2022-09-30T06:14:59;11.06;96.64
69938;DHT22;57248;47.320;15.998;2022-09-30T06:17:25;11.17;95.99
69938;DHT22;57248;47.320;15.998;2022-09-30T06:19:50;11.22;96.07
69938;DHT22;57248;47.320;15.998;2022-09-30T06:22:16;11.34;95.91
69938;DHT22;57248;47.320;15.998;2022-09-30T06:24:43;11.43;95.31
69938;DHT22;57248;47.320;15.998;2022-09-30T06:27:08;11.55;95.15
69938;DHT22;57248;47.320;15.998;2022-09-30T06:29:35;11.62;94.97
69938;DHT22;57248;47.320;15.998;2022-09-30T06:32:00;11.75;94.76
69938;DHT22;57248;47.320;15.998;2022-09-30T06:34:26;11.76;94.82
69938;DHT22;57248;47.320;15.998;2022-09-30T06:36:52;11.93;94.68
69938;DHT22;57248;47.320;15.998;2022-09-30T06:39:18;12.06;93.87
69938;DHT22;57248;47.320;15.998;2022-09-30T06:41:44;12.00;94.31
69938;DHT22;57248;47.320;15.998;2022-09-30T06:44:19;11.99;94.12
69938;DHT22;57248;47.320;15.998;2022-09-30T06:46:45;12.03;93.58
69938;DHT22;57248;47.320;15.998;2022-09-30T06:49:10;12.06;93.68
69938;DHT22;57248;47.320;15.998;2022-09-30T06:51:36;12.29;93.50
69938;DHT22;57248;47.320;15.998;2022-09-30T06:54:01;12.55;92.13
69938;DHT22;57248;47.320;15.998;2022-09-30T06:56:27;12.62;91.63
69938;DHT22;57248;47.320;15.998;2022-09-30T06:58:52;12.89;91.01
69938;DHT22;57248;47.320;15.998;2022-09-30T07:01:18;13.12;90.42
69938;DHT22;57248;47.320;15.998;2022-09-30T07:03:45;13.18;90.17
69938;DHT22;57248;47.320;15.998;2022-09-30T07:06:12;13.20;89.55
69938;DHT22;57248;47.320;15.998;2022-09-30T07:08:38;13.42;88.98
69938;DHT22;57248;47.320;15.998;2022-09-30T07:11:08;13.51;87.87
69938;DHT22;57248;47.320;15.998;2022-09-30T07:13:47;13.81;87.96
69938;DHT22;57248;47.320;15.998;2022-09-30T07:16:15;14.02;87.04
69938;DHT22;57248;47.320;15.998;2022-09-30T07:18:41;13.78;86.37
69938;DHT22;57248;47.320;15.998;2022-09-30T07:21:08;13.95;86.18
69938;DHT22;57248;47.320;15.998;2022-09-30T07:23:34;13.92;86.46
69938;DHT22;57248;47.320;15.998;2022-09-30T07:26:02;14.11;87.12
69938;DHT22;57248;47.320;15.998;2022-09-30T07:28:33;14.05;85.05
69938;DHT22;57248;47.320;15.998;2022-09-30T07:31:02;13.70;85.75
69938;DHT22;57248;47.320;15.998;2022-09-30T07:33:31;13.64;86.74
69938;DHT22;57248;47.320;15.998;2022-09-30T07:35:59;13.43;86.45
69938;DHT22;57248;47.320;15.998;2022-09-30T07:38:27;13.87;85.48
69938;DHT22;57248;47.320;15.998;2022-09-30T07:40:54;14.25;85.32
69938;DHT22;57248;47.320;15.998;2022-09-30T07:43:21;14.05;85.49
69938;DHT22;57248;47.320;15.998;2022-09-30T07:45:47;14.17;85.25
69938;DHT22;57248;47.320;15.998;2022-09-30T07:48:15;13.91;85.94
69938;DHT22;57248;47.320;15.998;2022-09-30T07:51:00;14.04;86.78
69938;DHT22;57248;47.320;15.998;2022-09-30T07:53:26;14.04;85.42
69938;DHT22;57248;47.320;15.998;2022-09-30T07:55:51;14.17;86.13
69938;DHT22;57248;47.320;15.998;2022-09-30T07:58:17;14.21;85.84
69938;DHT22;57248;47.320;15.998;2022-09-30T08:00:42;14.19;84.82
69938;DHT22;57248;47.320;15.998;2022-09-30T08:03:10;14.24;84.89
69938;DHT22;57248;47.320;15.998;2022-09-30T08:05:40;13.75;86.89
69938;DHT22;57248;47.320;15.998;2022-09-30T08:08:09;13.67;87.51
69938;DHT22;57248;47.320;15.998;2022-09-30T08:10:35;13.64;88.25
69938;DHT22;57248;47.320;15.998;2022-09-30T08:13:00;13.70;87.86
69938;DHT22;57248;47.320;15.998;2022-09-30T08:15:27;14.19;86.63
69938;DHT22;57248;47.320;15.998;2022-09-30T08:17:52;14.00;86.77
69938;DHT22;57248;47.320;15.998;2022-09-30T08:20:18;14.22;85.68
69938;DHT22;57248;47.320;15.998;2022-09-30T08:22:43;14.28;85.03
69938;DHT22;57248;47.320;15.998;2022-09-30T08:25:09;14.98;83.34
69938;DHT22;57248;47.320;15.998;2022-09-30T08:27:35;15.04;82.47
69938;DHT22;57248;47.320;15.998;2022-09-30T08:30:00;15.35;80.77
69938;DHT22;57248;47.320;15.998;2022-09-30T08:32:29;15.97;79.23
69938;DHT22;57248;47.320;15.998;2022-09-30T08:34:54;16.33;78.96
69938;DHT22;57248;47.320;15.998;2022-09-30T08:37:20;16.50;78.25
69938;DHT22;57248;47.320;15.998;2022-09-30T08:39:46;15.89;79.37
69938;DHT22;57248;47.320;15.998;2022-09-30T08:44:49;16.17;78.90
69938;DHT22;57248;47.320;15.998;2022-09-30T08:47:39;16.23;78.93
69938;DHT22;57248;47.320;15.998;2022-09-30T08:52:42;14.59;83.59
69938;DHT22;57248;47.320;15.998;2022-09-30T08:55:17;14.21;85.57
69938;DHT22;57248;47.320;15.998;2022-09-30T08:57:45;13.88;86.66
69938;DHT22;57248;47.320;15.998;2022-09-30T09:00:13;13.49;88.31
69938;DHT22;57248;47.320;15.998;2022-09-30T09:02:55;13.67;87.68
69938;DHT22;57248;47.320;15.998;2022-09-30T09:08:37;14.58;85.52
69938;DHT22;57248;47.320;15.998;2022-09-30T09:11:07;13.97;86.95
69938;DHT22;57248;47.320;15.998;2022-09-30T09:24:00;14.69;84.23
69938;DHT22;57248;47.320;15.998;2022-09-30T09:26:27;15.01;83.79
69938;DHT22;57248;47.320;15.998;2022-09-30T09:28:58;14.38;84.33
69938;DHT22;57248;47.320;15.998;2022-09-30T09:31:24;14.35;84.78
69938;DHT22;57248;47.320;15.998;2022-09-30T09:33:50;14.70;85.14
69938;DHT22;57248;47.320;15.998;2022-09-30T09:36:30;14.91;82.74
69938;DHT22;57248;47.320;15.998;2022-09-30T09:46:43;15.06;84.56
69938;DHT22;57248;47.320;15.998;2022-09-30T09:51:42;15.93;80.97
69938;DHT22;57248;47.320;15.998;2022-09-30T09:54:12;15.52;81.42
69938;DHT22;57248;47.320;15.998;2022-09-30T09:56:38;15.06;83.20
69938;DHT22;57248;47.320;15.998;2022-09-30T09:59:17;15.00;83.10
69938;DHT22;57248;47.320;15.998;2022-09-30T10:01:44;15.35;81.93
69938;DHT22;57248;47.320;15.998;2022-09-30T10:06:55;15.38;82.39
69938;DHT22;57248;47.320;15.998;2022-09-30T10:17:28;16.36;78.06
69938;DHT22;57248;47.320;15.998;2022-09-30T10:20:16;17.27;75.93
69938;DHT22;57248;47.320;15.998;2022-09-30T10:22:43;17.78;73.95
69938;DHT22;57248;47.320;15.998;2022-09-30T10:25:19;16.78;75.43
69938;DHT22;57248;47.320;15.998;2022-09-30T10:30:38;17.01;77.09
69938;DHT22;57248;47.320;15.998;2022-09-30T10:33:23;16.51;75.98
69938;DHT22;57248;47.320;15.998;2022-09-30T10:35:54;15.89;79.55
69938;DHT22;57248;47.320;15.998;2022-09-30T10:38:24;15.39;80.89
69938;DHT22;57248;47.320;15.998;2022-09-30T10:40:53;15.03;82.97
69938;DHT22;57248;47.320;15.998;2022-09-30T10:43:32;15.82;81.58
69938;DHT22;57248;47.320;15.998;2022-09-30T10:45:59;15.57;81.20
69938;DHT22;57248;47.320;15.998;2022-09-30T10:48:34;16.37;78.95
69938;DHT22;57248;47.320;15.998;2022-09-30T10:51:00;16.88;76.87
69938;DHT22;57248;47.320;15.998;2022-09-30T10:53:28;18.18;72.88
69938;DHT22;57248;47.320;15.998;2022-09-30T10:55:56;18.46;69.27
69938;DHT22;57248;47.320;15.998;2022-09-30T10:58:50;21.84;61.75
69938;DHT22;57248;47.320;15.998;2022-09-30T11:01:28;22.39;58.64
69938;DHT22;57248;47.320;15.998;2022-09-30T11:06:30;22.60;56.09
69938;DHT22;57248;47.320;15.998;2022-09-30T11:09:05;21.28;60.26
69938;DHT22;57248;47.320;15.998;2022-09-30T11:11:37;19.20;64.22
69938;DHT22;57248;47.320;15.998;2022-09-30T11:21:55;16.99;73.99
69938;DHT22;57248;47.320;15.998;2022-09-30T11:24:33;17.23;74.09
69938;DHT22;57248;47.320;15.998;2022-09-30T11:33:11;15.73;78.71
69938;DHT22;57248;47.320;15.998;2022-09-30T11:36:15;16.27;77.07
69938;DHT22;57248;47.320;15.998;2022-09-30T11:38:57;16.44;77.08
69938;DHT22;57248;47.320;15.998;2022-09-30T11:41:30;16.63;75.73
69938;DHT22;57248;47.320;15.998;2022-09-30T11:44:21;17.26;74.45
69938;DHT22;57248;47.320;15.998;2022-09-30T11:58:48;16.36;76.72
69938;DHT22;57248;47.320;15.998;2022-09-30T12:01:29;16.58;76.59
69938;DHT22;57248;47.320;15.998;2022-09-30T12:04:06;16.61;76.22
69938;DHT22;57248;47.320;15.998;2022-09-30T12:06:39;16.36;76.35
69938;DHT22;57248;47.320;15.998;2022-09-30T12:09:17;16.51;75.68
69938;DHT22;57248;47.320;15.998;2022-09-30T12:12:06;17.35;74.51
69938;DHT22;57248;47.320;15.998;2022-09-30T12:14:37;16.55;74.39
69938;DHT22;57248;47.320;15.998;2022-09-30T12:17:19;17.35;73.34
69938;DHT22;57248;47.320;15.998;2022-09-30T12:19:50;17.87;72.14
69938;DHT22;57248;47.320;15.998;2022-09-30T12:22:36;18.36;70.56
69938;DHT22;57248;47.320;15.998;2022-09-30T12:25:21;18.66;70.05
69938;DHT22;57248;47.320;15.998;2022-09-30T12:28:03;18.67;68.66
69938;DHT22;57248;47.320;15.998;2022-09-30T12:30:58;19.24;66.82
69938;DHT22;57248;47.320;15.998;2022-09-30T12:33:41;17.66;71.67
69938;DHT22;57248;47.320;15.998;2022-09-30T12:45:00;16.94;74.22
69938;DHT22;57248;47.320;15.998;2022-09-30T12:47:39;16.78;73.78
69938;DHT22;57248;47.320;15.998;2022-09-30T12:50:14;17.49;73.14
69938;DHT22;57248;47.320;15.998;2022-09-30T12:52:41;17.39;74.06
69938;DHT22;57248;47.320;15.998;2022-09-30T12:55:30;17.57;72.59
69938;DHT22;57248;47.320;15.998;2022-09-30T12:58:02;18.04;71.53
69938;DHT22;57248;47.320;15.998;2022-09-30T13:00:31;17.57;73.25
69938;DHT22;57248;47.320;15.998;2022-09-30T13:03:04;17.26;73.75
69938;DHT22;57248;47.320;15.998;2022-09-30T13:10:32;17.12;73.66
69938;DHT22;57248;47.320;15.998;2022-09-30T13:15:54;16.05;78.00
69938;DHT22;57248;47.320;15.998;2022-09-30T13:26:00;15.30;80.98
69938;DHT22;57248;47.320;15.998;2022-09-30T13:28:36;15.24;80.92
69938;DHT22;57248;47.320;15.998;2022-09-30T13:31:14;15.82;79.84
69938;DHT22;57248;47.320;15.998;2022-09-30T13:34:10;16.24;77.62
69938;DHT22;57248;47.320;15.998;2022-09-30T13:44:31;15.45;82.81
69938;DHT22;57248;47.320;15.998;2022-09-30T13:47:54;15.04;81.66
69938;DHT22;57248;47.320;15.998;2022-09-30T13:50:01;14.91;81.66
69938;DHT22;57248;47.320;15.998;2022-09-30T13:52:35;15.14;81.26
69938;DHT22;57248;47.320;15.998;2022-09-30T13:55:31;14.73;82.47
69938;DHT22;57248;47.320;15.998;2022-09-30T14:00:57;15.07;81.47
69938;DHT22;57248;47.320;15.998;2022-09-30T14:06:03;15.01;81.69
69938;DHT22;57248;47.320;15.998;2022-09-30T14:19:01;15.65;80.19
69938;DHT22;57248;47.320;15.998;2022-09-30T14:21:42;15.75;80.06
69938;DHT22;57248;47.320;15.998;2022-09-30T14:24:29;15.47;80.29
69938;DHT22;57248;47.320;15.998;2022-09-30T14:32:47;15.90;78.80
69938;DHT22;57248;47.320;15.998;2022-09-30T14:35:25;15.24;80.08
69938;DHT22;57248;47.320;15.998;2022-09-30T14:38:05;15.87;79.22
69938;DHT22;57248;47.320;15.998;2022-09-30T14:40:34;15.96;78.56
69938;DHT22;57248;47.320;15.998;2022-09-30T14:43:05;16.00;79.39
69938;DHT22;57248;47.320;15.998;2022-09-30T14:45:34;15.96;78.89
69938;DHT22;57248;47.320;15.998;2022-09-30T14:48:08;15.45;79.53
69938;DHT22;57248;47.320;15.998;2022-09-30T14:51:03;15.51;79.59
69938;DHT22;57248;47.320;15.998;2022-09-30T14:53:32;15.38;80.31
69938;DHT22;57248;47.320;15.998;2022-09-30T14:56:02;15.21;81.01
69938;DHT22;57248;47.320;15.998;2022-09-30T14:58:36;15.37;80.27
69938;DHT22;57248;47.320;15.998;2022-09-30T15:01:12;15.55;80.18
69938;DHT22;57248;47.320;15.998;2022-09-30T15:03:42;15.32;80.42
69938;DHT22;57248;47.320;15.998;2022-09-30T15:06:18;15.10;81.39
69938;DHT22;57248;47.320;15.998;2022-09-30T15:08:44;14.88;82.05
69938;DHT22;57248;47.320;15.998;2022-09-30T15:11:16;14.91;81.91
69938;DHT22;57248;47.320;15.998;2022-09-30T15:13:42;15.03;82.29
69938;DHT22;57248;47.320;15.998;2022-09-30T15:16:29;14.70;82.82
69938;DHT22;57248;47.320;15.998;2022-09-30T15:18:55;14.59;83.87
69938;DHT22;57248;47.320;15.998;2022-09-30T15:21:22;14.62;84.36
69938;DHT22;57248;47.320;15.998;2022-09-30T15:23:51;14.75;83.92
69938;DHT22;57248;47.320;15.998;2022-09-30T15:26:25;14.46;85.03
69938;DHT22;57248;47.320;15.998;2022-09-30T15:28:51;14.38;85.07
69938;DHT22;57248;47.320;15.998;2022-09-30T15:31:22;14.28;85.56
69938;DHT22;57248;47.320;15.998;2022-09-30T15:33:47;14.22;85.35
69938;DHT22;57248;47.320;15.998;2022-09-30T15:36:15;14.21;85.56
69938;DHT22;57248;47.320;15.998;2022-09-30T15:38:47;14.19;85.80
69938;DHT22;57248;47.320;15.998;2022-09-30T15:41:15;14.25;86.06
69938;DHT22;57248;47.320;15.998;2022-09-30T15:43:43;14.29;85.92
69938;DHT22;57248;47.320;15.998;2022-09-30T15:46:25;14.19;86.17
69938;DHT22;57248;47.320;15.998;2022-09-30T15:49:05;14.39;85.66
69938;DHT22;57248;47.320;15.998;2022-09-30T15:51:40;14.28;86.32
69938;DHT22;57248;47.320;15.998;2022-09-30T15:54:34;14.38;86.17
69938;DHT22;57248;47.320;15.998;2022-09-30T15:57:38;14.58;85.56
69938;DHT22;57248;47.320;15.998;2022-09-30T16:00:03;14.50;85.98
69938;DHT22;57248;47.320;15.998;2022-09-30T16:02:32;14.32;86.64
69938;DHT22;57248;47.320;15.998;2022-09-30T16:04:58;14.48;86.58
69938;DHT22;57248;47.320;15.998;2022-09-30T16:07:29;14.49;86.14
69938;DHT22;57248;47.320;15.998;2022-09-30T16:09:56;14.36;86.88
69938;DHT22;57248;47.320;15.998;2022-09-30T16:12:27;14.15;87.79
69938;DHT22;57248;47.320;15.998;2022-09-30T16:14:57;14.21;87.06
69938;DHT22;57248;47.320;15.998;2022-09-30T16:17:32;14.29;86.27
69938;DHT22;57248;47.320;15.998;2022-09-30T16:20:01;14.29;85.77
69938;DHT22;57248;47.320;15.998;2022-09-30T16:25:25;14.17;86.67
69938;DHT22;57248;47.320;15.998;2022-09-30T16:27:59;14.18;86.12
69938;DHT22;57248;47.320;15.998;2022-09-30T16:30:26;14.15;86.59
69938;DHT22;57248;47.320;15.998;2022-09-30T16:32:54;14.32;89.28
69938;DHT22;57248;47.320;15.998;2022-09-30T16:35:23;14.07;88.32
69938;DHT22;57248;47.320;15.998;2022-09-30T16:38:04;14.17;86.96
69938;DHT22;57248;47.320;15.998;2022-09-30T16:40:31;14.07;88.28
69938;DHT22;57248;47.320;15.998;2022-09-30T16:42:57;14.62;94.97
69938;DHT22;57248;47.320;15.998;2022-09-30T16:45:24;14.17;89.27
69938;DHT22;57248;47.320;15.998;2022-09-30T16:47:51;14.01;89.51
69938;DHT22;57248;47.320;15.998;2022-09-30T16:50:20;13.92;89.68
69938;DHT22;57248;47.320;15.998;2022-09-30T16:52:47;13.91;89.13
69938;DHT22;57248;47.320;15.998;2022-09-30T16:55:12;13.87;89.40
69938;DHT22;57248;47.320;15.998;2022-09-30T16:57:39;13.84;89.53
69938;DHT22;57248;47.320;15.998;2022-09-30T17:00:09;13.84;89.56
69938;DHT22;57248;47.320;15.998;2022-09-30T17:02:36;13.75;89.79
69938;DHT22;57248;47.320;15.998;2022-09-30T17:05:02;13.73;89.83
69938;DHT22;57248;47.320;15.998;2022-09-30T17:07:27;13.68;89.83
69938;DHT22;57248;47.320;15.998;2022-09-30T17:09:55;13.64;90.13
69938;DHT22;57248;47.320;15.998;2022-09-30T17:12:22;13.61;89.92
69938;DHT22;57248;47.320;15.998;2022-09-30T17:14:47;13.57;90.10
69938;DHT22;57248;47.320;15.998;2022-09-30T17:17:13;13.47;90.20
69938;DHT22;57248;47.320;15.998;2022-09-30T17:19:38;13.50;90.01
69938;DHT22;57248;47.320;15.998;2022-09-30T17:22:04;13.44;90.94
69938;DHT22;57248;47.320;15.998;2022-09-30T17:24:30;13.40;91.12
69938;DHT22;57248;47.320;15.998;2022-09-30T17:26:57;13.43;90.78
69938;DHT22;57248;47.320;15.998;2022-09-30T17:29:23;13.36;91.11
69938;DHT22;57248;47.320;15.998;2022-09-30T17:31:48;13.39;90.28
69938;DHT22;57248;47.320;15.998;2022-09-30T17:34:14;13.16;92.60
69938;DHT22;57248;47.320;15.998;2022-09-30T17:36:40;13.12;92.35
69938;DHT22;57248;47.320;15.998;2022-09-30T17:39:06;13.19;91.77
69938;DHT22;57248;47.320;15.998;2022-09-30T17:41:32;13.15;92.52
69938;DHT22;57248;47.320;15.998;2022-09-30T17:44:17;13.39;95.40
69938;DHT22;57248;47.320;15.998;2022-09-30T17:46:44;13.06;93.55
69938;DHT22;57248;47.320;15.998;2022-09-30T17:49:11;13.00;93.99
69938;DHT22;57248;47.320;15.998;2022-09-30T17:51:37;12.99;94.13
69938;DHT22;57248;47.320;15.998;2022-09-30T17:54:07;12.95;93.87
69938;DHT22;57248;47.320;15.998;2022-09-30T17:56:33;12.95;93.64
69938;DHT22;57248;47.320;15.998;2022-09-30T17:58:59;13.00;93.15
69938;DHT22;57248;47.320;15.998;2022-09-30T18:01:28;12.99;93.29
69938;DHT22;57248;47.320;15.998;2022-09-30T18:03:58;13.03;93.31
69938;DHT22;57248;47.320;15.998;2022-09-30T18:06:25;12.99;94.07
69938;DHT22;57248;47.320;15.998;2022-09-30T18:08:53;13.03;93.85
69938;DHT22;57248;47.320;15.998;2022-09-30T18:11:22;12.91;94.86
69938;DHT22;57248;47.320;15.998;2022-09-30T18:13:56;12.79;95.72
69938;DHT22;57248;47.320;15.998;2022-09-30T18:16:42;12.85;95.70
69938;DHT22;57248;47.320;15.998;2022-09-30T18:19:08;12.87;95.55
69938;DHT22;57248;47.320;15.998;2022-09-30T18:21:35;12.89;94.94
69938;DHT22;57248;47.320;15.998;2022-09-30T18:24:02;12.88;95.01
69938;DHT22;57248;47.320;15.998;2022-09-30T18:26:32;12.77;96.01
69938;DHT22;57248;47.320;15.998;2022-09-30T18:28:57;12.74;96.08
69938;DHT22;57248;47.320;15.998;2022-09-30T18:31:24;12.84;95.69
69938;DHT22;57248;47.320;15.998;2022-09-30T18:33:59;12.93;95.26
69938;DHT22;57248;47.320;15.998;2022-09-30T18:36:25;13.06;95.89
69938;DHT22;57248;47.320;15.998;2022-09-30T18:38:52;13.03;94.21
69938;DHT22;57248;47.320;15.998;2022-09-30T18:41:18;13.02;94.46
69938;DHT22;57248;47.320;15.998;2022-09-30T18:43:43;12.98;94.91
69938;DHT22;57248;47.320;15.998;2022-09-30T18:46:10;12.99;94.81